Time;durP1;ratioP1;P1;durP2;ratioP2;P2;SDS_P1;SDS_P2;PMS_P1;PMS_P2;Temp;Humidity;BMP_temperature;BMP_pressure;BME280_temperature;BME280_humidity;BME280_pressure;Samples;Min_cycle;Max_cycle;Signal;HPM_P1;HPM_P2
2023/01/06 00:00:39;;;;;;;;;;;;;;;;;;4575608;30;19960;-85
2023/01/06 00:10:31;;;;;;;;;;;;;;;;;;4515647;31;20355;-85
2023/01/06 00:52:15;;;;;;;;;;;;;;;;;;6307881;22;20335;-87
2023/01/06 00:54:42;;;;;;;;;;;;;;;;;;6303421;22;20029;-87
2023/01/06 00:57:07;;;;;;;;;;;;;;;;;;6299493;22;19918;-87
2023/01/06 00:59:33;;;;;;;;;;;;;;;;;;6300372;22;19918;-87
2023/01/06 01:01:59;;;;;;;;;;;;;;;;;;6326463;22;19993;-86
2023/01/06 01:04:25;;;;;;;;;;;;;;;;;;6301348;22;19918;-86
2023/01/06 01:06:52;;;;;;;;;;;;;;;;;;6322154;22;19922;-87
2023/01/06 01:09:18;;;;;;;;;;;;;;;;;;6324302;22;19926;-87
2023/01/06 01:14:28;;;;;;;;;;;;;;;;;;6356838;22;19918;-87
2023/01/06 01:16:54;;;;;;;;;;;;;;;;;;6299699;22;20042;-87
2023/01/06 01:19:20;;;;;;;;;;;;;;;;;;6306509;22;19967;-86
2023/01/06 01:21:46;;;;;;;;;;;;;;;;;;6305135;22;19983;-86
2023/01/06 01:24:12;;;;;;;;;;;;;;;;;;6295893;22;20431;-87
2023/01/06 01:26:38;;;;;;;;;;;;;;;;;;6295185;22;20320;-86
2023/01/06 01:29:04;;;;;;;;;;;;;;;;;;6317165;22;19918;-86
2023/01/06 01:31:30;;;;;;;;;;;;;;;;;;6290658;22;19958;-87
2023/01/06 01:33:56;;;;;;;;;;;;;;;;;;6288736;22;19954;-86
2023/01/06 01:36:22;;;;;;;;;;;;;;;;;;6321934;22;20361;-87
2023/01/06 01:38:48;;;;;;;;;;;;;;;;;;6295199;22;19918;-86
2023/01/06 01:41:14;;;;;;;;;;;;;;;;;;6290557;22;19925;-87
2023/01/06 01:43:40;;;;;;;;;;;;;;;;;;6317757;22;20414;-86
2023/01/06 01:46:06;;;;;;;;;;;;;;;;;;6288636;22;19967;-87
2023/01/06 01:48:32;;;;;;;;;;;;;;;;;;6289166;22;20675;-87
2023/01/06 01:50:58;;;;;;;;;;;;;;;;;;6314785;22;19925;-87
2023/01/06 01:53:24;;;;;;;;;;;;;;;;;;6314971;22;19954;-87
2023/01/06 01:55:50;;;;;;;;;;;;;;;;;;6316487;22;20019;-87
2023/01/06 01:58:16;;;;;;;;;;;;;;;;;;6291387;22;20368;-87
2023/01/06 02:00:42;;;;;;;;;;;;;;;;;;6319385;22;19918;-86
2023/01/06 02:03:08;;;;;;;;;;;;;;;;;;6287226;22;19918;-87
2023/01/06 02:05:34;;;;;;;;;;;;;;;;;;6293092;22;20025;-86
2023/01/06 02:08:00;;;;;;;;;;;;;;;;;;6315068;22;20641;-87
2023/01/06 02:10:26;;;;;;;;;;;;;;;;;;6291711;22;19918;-87
2023/01/06 02:12:52;;;;;;;;;;;;;;;;;;6293989;22;19933;-87
2023/01/06 02:15:18;;;;;;;;;;;;;;;;;;6294659;22;20231;-87
2023/01/06 02:17:44;;;;;;;;;;;;;;;;;;6296422;22;19918;-87
2023/01/06 02:20:10;;;;;;;;;;;;;;;;;;6290757;22;19925;-87
2023/01/06 02:22:36;;;;;;;;;;;;;;;;;;6320323;22;19928;-86
2023/01/06 02:25:02;;;;;;;;;;;;;;;;;;6294086;22;19922;-87
2023/01/06 02:27:28;;;;;;;;;;;;;;;;;;6292015;22;20140;-86
2023/01/06 02:29:54;;;;;;;;;;;;;;;;;;6291466;22;20271;-87
2023/01/06 02:32:20;;;;;;;;;;;;;;;;;;6293248;22;20025;-87
2023/01/06 02:34:46;;;;;;;;;;;;;;;;;;6295585;22;20006;-86
2023/01/06 02:37:15;;;;;;;;;;;;;;;;;;6317898;22;20314;-88
2023/01/06 02:39:41;;;;;;;;;;;;;;;;;;6295395;22;19922;-88
2023/01/06 02:42:07;;;;;;;;;;;;;;;;;;6292439;22;19914;-87
2023/01/06 02:44:33;;;;;;;;;;;;;;;;;;6296245;22;19918;-87
2023/01/06 02:46:59;;;;;;;;;;;;;;;;;;6292412;22;20462;-87
2023/01/06 02:49:25;;;;;;;;;;;;;;;;;;6296029;22;20350;-86
2023/01/06 02:51:54;;;;;;;;;;;;;;;;;;6295886;22;19965;-87
2023/01/06 02:54:20;;;;;;;;;;;;;;;;;;6294951;22;19922;-86
2023/01/06 02:56:46;;;;;;;;;;;;;;;;;;6297495;22;19936;-86
2023/01/06 02:59:12;;;;;;;;;;;;;;;;;;6295014;22;19922;-86
2023/01/06 03:01:39;;;;;;;;;;;;;;;;;;6323868;22;20242;-86
2023/01/06 03:04:07;;;;;;;;;;;;;;;;;;6291814;22;19928;-86
2023/01/06 03:06:33;;;;;;;;;;;;;;;;;;6322588;22;20331;-86
2023/01/06 03:08:59;;;;;;;;;;;;;;;;;;6294400;22;19978;-86
2023/01/06 03:11:25;;;;;;;;;;;;;;;;;;6295720;22;19929;-87
2023/01/06 03:13:54;;;;;;;;;;;;;;;;;;6296757;22;19926;-86
2023/01/06 03:16:20;;;;;;;;;;;;;;;;;;6323737;22;19918;-85
2023/01/06 03:18:49;;;;;;;;;;;;;;;;;;6298050;22;19989;-86
2023/01/06 03:21:15;;;;;;;;;;;;;;;;;;6294620;22;19919;-85
2023/01/06 03:23:41;;;;;;;;;;;;;;;;;;6322766;22;19933;-86
2023/01/06 03:26:07;;;;;;;;;;;;;;;;;;6295114;22;19997;-87
2023/01/06 03:28:33;;;;;;;;;;;;;;;;;;6294973;22;19992;-86
2023/01/06 03:30:59;;;;;;;;;;;;;;;;;;6291790;22;19993;-87
2023/01/06 03:33:25;;;;;;;;;;;;;;;;;;6298064;22;20009;-86
2023/01/06 03:35:54;;;;;;;;;;;;;;;;;;6296887;22;20484;-86
2023/01/06 03:38:20;;;;;;;;;;;;;;;;;;6325467;22;19927;-87
2023/01/06 03:40:46;;;;;;;;;;;;;;;;;;6320929;22;19968;-86
2023/01/06 03:43:14;;;;;;;;;;;;;;;;;;6291693;22;20307;-87
2023/01/06 03:45:40;;;;;;;;;;;;;;;;;;6297201;22;20001;-87
2023/01/06 03:48:06;;;;;;;;;;;;;;;;;;6295207;22;20018;-86
2023/01/06 03:50:32;;;;;;;;;;;;;;;;;;6296896;22;19925;-87
2023/01/06 03:52:58;;;;;;;;;;;;;;;;;;6314233;22;19922;-87
2023/01/06 03:55:27;;;;;;;;;;;;;;;;;;6289905;22;19918;-85
2023/01/06 03:57:53;;;;;;;;;;;;;;;;;;6291330;22;19919;-87
2023/01/06 04:00:22;;;;;;;;;;;;;;;;;;6289506;22;20349;-86
2023/01/06 04:02:48;;;;;;;;;;;;;;;;;;6290518;22;19997;-87
2023/01/06 04:05:14;;;;;;;;;;;;;;;;;;6314593;22;20073;-86
2023/01/06 04:07:40;;;;;;;;;;;;;;;;;;6290830;22;19919;-86
2023/01/06 04:10:06;;;;;;;;;;;;;;;;;;6289434;22;19989;-86
2023/01/06 04:12:38;;;;;;;;;;;;;;;;;;6291601;22;20106;-86
2023/01/06 04:15:04;;;;;;;;;;;;;;;;;;6288092;22;19918;-86
2023/01/06 04:17:30;;;;;;;;;;;;;;;;;;6291142;22;19918;-86
2023/01/06 04:19:56;;;;;;;;;;;;;;;;;;6288347;22;19919;-87
2023/01/06 04:22:22;;;;;;;;;;;;;;;;;;6290839;22;19914;-86
2023/01/06 04:24:48;;;;;;;;;;;;;;;;;;6315120;22;19967;-86
2023/01/06 04:27:14;;;;;;;;;;;;;;;;;;6316826;22;19953;-87
2023/01/06 04:29:40;;;;;;;;;;;;;;;;;;6319724;22;19914;-87
2023/01/06 04:32:06;;;;;;;;;;;;;;;;;;6315699;22;19923;-86
2023/01/06 04:34:32;;;;;;;;;;;;;;;;;;6317690;22;19993;-86
2023/01/06 04:36:58;;;;;;;;;;;;;;;;;;6315843;22;19918;-85
2023/01/06 04:39:24;;;;;;;;;;;;;;;;;;6294182;22;19922;-87
2023/01/06 04:41:50;;;;;;;;;;;;;;;;;;6292763;22;19918;-87
2023/01/06 04:44:16;;;;;;;;;;;;;;;;;;6286493;22;20247;-86
2023/01/06 04:46:42;;;;;;;;;;;;;;;;;;6292398;22;19975;-87
2023/01/06 04:49:08;;;;;;;;;;;;;;;;;;6317598;22;19918;-87
2023/01/06 04:51:34;;;;;;;;;;;;;;;;;;6291958;22;20230;-86
2023/01/06 04:54:00;;;;;;;;;;;;;;;;;;6286369;22;20251;-87
2023/01/06 04:56:26;;;;;;;;;;;;;;;;;;6292865;22;19930;-87
2023/01/06 04:58:52;;;;;;;;;;;;;;;;;;6318558;22;19929;-86
2023/01/06 05:01:18;;;;;;;;;;;;;;;;;;6318122;22;20402;-86
2023/01/06 05:03:44;;;;;;;;;;;;;;;;;;6316572;22;19926;-86
2023/01/06 05:06:10;;;;;;;;;;;;;;;;;;6290954;22;19918;-86
2023/01/06 05:08:36;;;;;;;;;;;;;;;;;;6319286;22;19918;-86
2023/01/06 05:11:02;;;;;;;;;;;;;;;;;;6315926;22;19929;-86
2023/01/06 05:13:28;;;;;;;;;;;;;;;;;;6320950;22;19922;-86
2023/01/06 05:15:54;;;;;;;;;;;;;;;;;;6316691;22;19993;-87
2023/01/06 05:18:20;;;;;;;;;;;;;;;;;;6317923;22;19926;-85
2023/01/06 05:20:46;;;;;;;;;;;;;;;;;;6293334;22;19976;-87
2023/01/06 05:23:12;;;;;;;;;;;;;;;;;;6319431;22;20411;-87
2023/01/06 05:25:38;;;;;;;;;;;;;;;;;;6321286;22;19929;-85
2023/01/06 05:28:04;;;;;;;;;;;;;;;;;;6319449;22;20337;-86
2023/01/06 05:30:30;;;;;;;;;;;;;;;;;;6296828;22;19922;-86
2023/01/06 05:32:56;;;;;;;;;;;;;;;;;;6317768;22;19930;-87
2023/01/06 05:35:22;;;;;;;;;;;;;;;;;;6293720;22;20341;-85
2023/01/06 05:37:48;;;;;;;;;;;;;;;;;;6296369;22;19919;-87
2023/01/06 05:40:14;;;;;;;;;;;;;;;;;;6292242;22;20308;-86
2023/01/06 05:42:40;;;;;;;;;;;;;;;;;;6295610;22;19968;-86
2023/01/06 05:45:06;;;;;;;;;;;;;;;;;;6289098;22;19926;-87
2023/01/06 05:47:32;;;;;;;;;;;;;;;;;;6293794;22;20229;-86
2023/01/06 05:49:58;;;;;;;;;;;;;;;;;;6316732;22;19919;-86
2023/01/06 05:52:24;;;;;;;;;;;;;;;;;;6322087;22;19922;-86
2023/01/06 05:54:50;;;;;;;;;;;;;;;;;;6319536;22;20232;-87
2023/01/06 05:57:16;;;;;;;;;;;;;;;;;;6317947;22;19961;-85
2023/01/06 05:59:42;;;;;;;;;;;;;;;;;;6317927;22;20365;-85
2023/01/06 06:02:08;;;;;;;;;;;;;;;;;;6291787;22;19967;-85
2023/01/06 06:04:36;;;;;;;;;;;;;;;;;;6317769;22;19918;-86
2023/01/06 06:07:02;;;;;;;;;;;;;;;;;;6289389;22;20011;-86
2023/01/06 06:09:28;;;;;;;;;;;;;;;;;;6292706;22;19919;-86
2023/01/06 06:11:57;;;;;;;;;;;;;;;;;;6290604;22;19923;-86
2023/01/06 06:14:25;;;;;;;;;;;;;;;;;;6290906;22;20150;-85
2023/01/06 06:16:55;;;;;;;;;;;;;;;;;;6318192;22;19918;-87
2023/01/06 06:19:21;;;;;;;;;;;;;;;;;;6317842;22;20324;-86
2023/01/06 06:21:49;;;;;;;;;;;;;;;;;;6287769;22;19953;-87
2023/01/06 06:24:18;;;;;;;;;;;;;;;;;;6318645;22;20328;-85
2023/01/06 06:26:44;;;;;;;;;;;;;;;;;;6294145;22;19929;-86
2023/01/06 06:29:10;;;;;;;;;;;;;;;;;;6291942;22;19918;-85
2023/01/06 06:31:36;;;;;;;;;;;;;;;;;;6291757;22;19923;-86
2023/01/06 06:34:02;;;;;;;;;;;;;;;;;;6289914;22;19930;-87
2023/01/06 06:36:28;;;;;;;;;;;;;;;;;;6293075;22;19914;-87
2023/01/06 06:38:56;;;;;;;;;;;;;;;;;;6314473;22;20058;-87
2023/01/06 06:41:22;;;;;;;;;;;;;;;;;;6291438;22;19919;-87
2023/01/06 06:43:49;;;;;;;;;;;;;;;;;;6291017;22;20171;-86
2023/01/06 06:46:15;;;;;;;;;;;;;;;;;;6316894;22;19918;-85
2023/01/06 06:48:41;;;;;;;;;;;;;;;;;;6291631;22;19918;-86
2023/01/06 06:51:07;;;;;;;;;;;;;;;;;;6288823;22;19919;-87
2023/01/06 06:53:33;;;;;;;;;;;;;;;;;;6292802;22;19971;-87
2023/01/06 06:55:59;;;;;;;;;;;;;;;;;;6292434;22;19918;-86
2023/01/06 06:58:25;;;;;;;;;;;;;;;;;;6294122;22;19987;-87
2023/01/06 07:00:56;;;;;;;;;;;;;;;;;;6289832;22;19926;-87
2023/01/06 07:03:25;;;;;;;;;;;;;;;;;;6318082;22;19918;-88
2023/01/06 07:05:54;;;;;;;;;;;;;;;;;;6319591;22;19967;-87
2023/01/06 07:08:23;;;;;;;;;;;;;;;;;;6318279;22;20698;-86
2023/01/06 07:10:50;;;;;;;;;;;;;;;;;;6294058;22;20222;-87
2023/01/06 07:13:16;;;;;;;;;;;;;;;;;;6316303;22;19931;-87
2023/01/06 07:15:42;;;;;;;;;;;;;;;;;;6318259;22;19918;-87
2023/01/06 07:18:08;;;;;;;;;;;;;;;;;;6314638;22;20621;-87
2023/01/06 07:20:34;;;;;;;;;;;;;;;;;;6293214;22;19925;-86
2023/01/06 07:23:00;;;;;;;;;;;;;;;;;;6291633;22;19919;-88
2023/01/06 07:25:26;;;;;;;;;;;;;;;;;;6316662;22;19926;-86
2023/01/06 07:27:52;;;;;;;;;;;;;;;;;;6319230;22;19923;-87
2023/01/06 07:30:18;;;;;;;;;;;;;;;;;;6318641;22;19964;-87
2023/01/06 07:32:44;;;;;;;;;;;;;;;;;;6292112;22;19922;-86
2023/01/06 07:35:10;;;;;;;;;;;;;;;;;;6290117;22;19925;-86
2023/01/06 07:37:36;;;;;;;;;;;;;;;;;;6294644;22;19954;-86
2023/01/06 07:40:04;;;;;;;;;;;;;;;;;;6316901;22;19923;-87
2023/01/06 07:42:30;;;;;;;;;;;;;;;;;;6292094;22;19922;-86
2023/01/06 07:44:56;;;;;;;;;;;;;;;;;;6314426;22;20072;-87
2023/01/06 07:47:22;;;;;;;;;;;;;;;;;;6290318;22;20877;-87
2023/01/06 07:49:48;;;;;;;;;;;;;;;;;;6290249;22;19993;-87
2023/01/06 07:52:14;;;;;;;;;;;;;;;;;;6314136;22;19946;-87
2023/01/06 07:54:40;;;;;;;;;;;;;;;;;;6292736;22;19963;-86
2023/01/06 07:57:06;;;;;;;;;;;;;;;;;;6290881;22;19919;-88
2023/01/06 07:59:32;;;;;;;;;;;;;;;;;;6293277;22;19960;-87
2023/01/06 08:01:58;;;;;;;;;;;;;;;;;;6312335;22;20007;-87
2023/01/06 08:04:24;;;;;;;;;;;;;;;;;;6294372;22;20336;-87
2023/01/06 08:06:53;;;;;;;;;;;;;;;;;;6291328;22;19990;-87
2023/01/06 08:09:21;;;;;;;;;;;;;;;;;;6292791;22;19929;-88
2023/01/06 08:11:47;;;;;;;;;;;;;;;;;;6290989;22;19929;-87
2023/01/06 08:14:13;;;;;;;;;;;;;;;;;;6291984;22;19922;-86
2023/01/06 08:16:39;;;;;;;;;;;;;;;;;;6317457;22;20347;-87
2023/01/06 08:19:05;;;;;;;;;;;;;;;;;;6290191;22;19926;-86
2023/01/06 08:21:31;;;;;;;;;;;;;;;;;;6318489;22;19932;-85
2023/01/06 08:23:57;;;;;;;;;;;;;;;;;;6290039;22;19940;-86
2023/01/06 08:26:23;;;;;;;;;;;;;;;;;;6291649;22;19918;-86
2023/01/06 08:28:50;;;;;;;;;;;;;;;;;;6290992;22;19937;-86
2023/01/06 08:31:16;;;;;;;;;;;;;;;;;;6287556;22;19919;-86
2023/01/06 08:33:42;;;;;;;;;;;;;;;;;;6320322;22;19929;-86
2023/01/06 08:36:08;;;;;;;;;;;;;;;;;;6316403;22;19969;-86
2023/01/06 08:38:34;;;;;;;;;;;;;;;;;;6322440;22;19919;-86
2023/01/06 08:41:00;;;;;;;;;;;;;;;;;;6318415;22;19921;-86
2023/01/06 08:43:26;;;;;;;;;;;;;;;;;;6292962;22;20332;-86
2023/01/06 08:45:52;;;;;;;;;;;;;;;;;;6290418;22;19918;-86
2023/01/06 08:48:18;;;;;;;;;;;;;;;;;;6292517;22;19983;-86
2023/01/06 08:50:44;;;;;;;;;;;;;;;;;;6318935;22;20410;-86
2023/01/06 08:53:10;;;;;;;;;;;;;;;;;;6317703;22;19970;-86
2023/01/06 08:55:36;;;;;;;;;;;;;;;;;;6293406;22;20006;-86
2023/01/06 08:58:02;;;;;;;;;;;;;;;;;;6288984;22;19922;-85
2023/01/06 09:00:28;;;;;;;;;;;;;;;;;;6318099;22;19925;-85
2023/01/06 09:02:54;;;;;;;;;;;;;;;;;;6315150;22;19977;-85
2023/01/06 09:05:20;;;;;;;;;;;;;;;;;;6320127;22;19919;-85
2023/01/06 09:07:46;;;;;;;;;;;;;;;;;;6315851;22;19930;-85
2023/01/06 09:10:12;;;;;;;;;;;;;;;;;;6316458;22;19922;-85
2023/01/06 09:12:38;;;;;;;;;;;;;;;;;;6318323;22;20001;-85
2023/01/06 09:15:04;;;;;;;;;;;;;;;;;;6290714;22;19998;-85
2023/01/06 09:17:30;;;;;;;;;;;;;;;;;;6317617;22;19918;-86
2023/01/06 09:19:56;;;;;;;;;;;;;;;;;;6316577;22;19989;-85
2023/01/06 09:22:22;;;;;;;;;;;;;;;;;;6315054;22;19922;-85
2023/01/06 09:24:48;;;;;;;;;;;;;;;;;;6293956;22;20236;-85
2023/01/06 09:27:14;;;;;;;;;;;;;;;;;;6291074;22;19930;-85
2023/01/06 09:29:40;;;;;;;;;;;;;;;;;;6317070;22;20307;-86
2023/01/06 09:32:06;;;;;;;;;;;;;;;;;;6288422;22;20090;-86
2023/01/06 09:34:32;;;;;;;;;;;;;;;;;;6292514;22;19922;-86
2023/01/06 09:36:58;;;;;;;;;;;;;;;;;;6313758;22;20648;-85
2023/01/06 09:39:24;;;;;;;;;;;;;;;;;;6292589;22;19990;-85
2023/01/06 09:41:50;;;;;;;;;;;;;;;;;;6292278;22;20014;-86
2023/01/06 09:44:16;;;;;;;;;;;;;;;;;;6288661;22;19953;-86
2023/01/06 09:46:42;;;;;;;;;;;;;;;;;;6291871;22;20668;-86
2023/01/06 09:49:08;;;;;;;;;;;;;;;;;;6313401;22;19962;-86
2023/01/06 09:51:34;;;;;;;;;;;;;;;;;;6291606;22;19918;-86
2023/01/06 09:54:00;;;;;;;;;;;;;;;;;;6287324;22;19926;-86
2023/01/06 09:56:26;;;;;;;;;;;;;;;;;;6291167;22;19919;-86
2023/01/06 09:58:52;;;;;;;;;;;;;;;;;;6314341;22;19918;-86
2023/01/06 10:01:18;;;;;;;;;;;;;;;;;;6314731;22;19918;-86
2023/01/06 10:03:44;;;;;;;;;;;;;;;;;;6289426;22;20247;-87
2023/01/06 10:06:10;;;;;;;;;;;;;;;;;;6288325;22;20390;-86
2023/01/06 10:08:36;;;;;;;;;;;;;;;;;;6289711;22;19919;-86
2023/01/06 10:11:02;;;;;;;;;;;;;;;;;;6288727;22;19919;-86
2023/01/06 10:13:28;;;;;;;;;;;;;;;;;;6291142;22;20001;-86
2023/01/06 10:15:54;;;;;;;;;;;;;;;;;;6293232;22;19918;-86
2023/01/06 10:18:20;;;;;;;;;;;;;;;;;;6315555;22;20327;-87
2023/01/06 10:20:46;;;;;;;;;;;;;;;;;;6290525;22;19925;-86
2023/01/06 10:23:12;;;;;;;;;;;;;;;;;;6312943;22;19985;-86
2023/01/06 10:25:41;;;;;;;;;;;;;;;;;;6315709;22;19918;-86
2023/01/06 10:28:09;;;;;;;;;;;;;;;;;;6315474;22;20007;-86
2023/01/06 10:30:35;;;;;;;;;;;;;;;;;;6317226;22;19945;-86
2023/01/06 10:33:01;;;;;;;;;;;;;;;;;;6289233;22;20023;-86
2023/01/06 10:35:27;;;;;;;;;;;;;;;;;;6290612;22;19918;-86
2023/01/06 10:37:53;;;;;;;;;;;;;;;;;;6290398;22;19918;-86
2023/01/06 10:40:19;;;;;;;;;;;;;;;;;;6318733;22;19953;-85
2023/01/06 10:42:54;;;;;;;;;;;;;;;;;;6317437;22;19949;-85
2023/01/06 10:45:20;;;;;;;;;;;;;;;;;;6319457;22;19993;-85
2023/01/06 10:47:46;;;;;;;;;;;;;;;;;;6316247;22;19981;-85
2023/01/06 10:50:12;;;;;;;;;;;;;;;;;;6292136;22;19929;-85
2023/01/06 10:52:38;;;;;;;;;;;;;;;;;;6294025;22;19955;-85
2023/01/06 10:55:04;;;;;;;;;;;;;;;;;;6317224;22;20388;-85
2023/01/06 10:57:31;;;;;;;;;;;;;;;;;;6319033;22;20001;-85
2023/01/06 10:59:57;;;;;;;;;;;;;;;;;;6320061;22;19972;-85
2023/01/06 11:02:23;;;;;;;;;;;;;;;;;;6294640;22;20293;-85
2023/01/06 11:04:49;;;;;;;;;;;;;;;;;;6317788;22;20191;-86
2023/01/06 11:07:14;;;;;;;;;;;;;;;;;;6313004;22;20210;-85
2023/01/06 11:09:40;;;;;;;;;;;;;;;;;;6315043;22;19925;-85
2023/01/06 11:12:07;;;;;;;;;;;;;;;;;;6314941;22;19926;-85
2023/01/06 11:14:33;;;;;;;;;;;;;;;;;;6292156;22;19918;-87
2023/01/06 11:16:59;;;;;;;;;;;;;;;;;;6288488;22;20005;-85
2023/01/06 11:19:25;;;;;;;;;;;;;;;;;;6292492;22;19995;-85
2023/01/06 11:21:51;;;;;;;;;;;;;;;;;;6289088;22;20429;-85
2023/01/06 11:24:17;;;;;;;;;;;;;;;;;;6293579;22;19987;-85
2023/01/06 11:26:43;;;;;;;;;;;;;;;;;;6318272;22;19918;-85
2023/01/06 11:29:09;;;;;;;;;;;;;;;;;;6313672;22;19918;-85
2023/01/06 11:31:35;;;;;;;;;;;;;;;;;;6289780;22;19919;-85
2023/01/06 11:34:01;;;;;;;;;;;;;;;;;;6315708;22;19922;-85
2023/01/06 11:36:27;;;;;;;;;;;;;;;;;;6293224;22;19950;-85
2023/01/06 11:38:53;;;;;;;;;;;;;;;;;;6290605;22;19919;-86
2023/01/06 11:41:19;;;;;;;;;;;;;;;;;;6315429;22;19919;-86
2023/01/06 11:43:48;;;;;;;;;;;;;;;;;;6316320;22;19918;-85
2023/01/06 11:46:14;;;;;;;;;;;;;;;;;;6315335;22;19919;-85
2023/01/06 11:48:40;;;;;;;;;;;;;;;;;;6319998;22;19925;-85
2023/01/06 11:51:08;;;;;;;;;;;;;;;;;;6287066;22;19925;-86
2023/01/06 11:53:34;;;;;;;;;;;;;;;;;;6310651;22;20013;-86
2023/01/06 11:56:04;;;;;;;;;;;;;;;;;;6312863;22;19946;-85
2023/01/06 11:58:29;;;;;;;;;;;;;;;;;;6318836;22;20215;-85
2023/01/06 12:00:55;;;;;;;;;;;;;;;;;;6289000;22;19918;-86
2023/01/06 12:03:21;;;;;;;;;;;;;;;;;;6315552;22;19930;-86
2023/01/06 12:05:48;;;;;;;;;;;;;;;;;;6320673;22;19922;-86
2023/01/06 12:08:16;;;;;;;;;;;;;;;;;;6287339;22;19918;-85
2023/01/06 12:10:42;;;;;;;;;;;;;;;;;;6317007;22;20636;-85
2023/01/06 12:13:08;;;;;;;;;;;;;;;;;;6288032;22;19922;-85
2023/01/06 12:15:34;;;;;;;;;;;;;;;;;;6315328;22;19929;-86
2023/01/06 12:18:01;;;;;;;;;;;;;;;;;;6285188;22;19919;-85
2023/01/06 12:20:27;;;;;;;;;;;;;;;;;;6315224;22;20588;-86
2023/01/06 12:47:04;;;;;;;;;;;;;;;;;;6335766;22;19933;-85
2023/01/06 12:49:30;;;;;;;;;;;;;;;;;;6323120;22;19953;-86
2023/01/06 12:51:55;;;;;;;;;;;;;;;;;;6294526;22;20418;-85
2023/01/06 12:54:22;;;;;;;;;;;;;;;;;;6301047;22;19991;-84
2023/01/06 12:56:48;;;;;;;;;;;;;;;;;;6325083;22;19918;-86
2023/01/06 12:59:13;;;;;;;;;;;;;;;;;;6324972;22;19918;-85
2023/01/06 13:01:39;;;;;;;;;;;;;;;;;;6326135;22;19954;-85
2023/01/06 13:04:05;;;;;;;;;;;;;;;;;;6297535;22;20340;-85
2023/01/06 13:06:31;;;;;;;;;;;;;;;;;;6299218;22;19918;-84
2023/01/06 13:08:57;;;;;;;;;;;;;;;;;;6298035;22;20350;-86
2023/01/06 13:11:23;;;;;;;;;;;;;;;;;;6299165;22;19918;-85
2023/01/06 13:13:52;;;;;;;;;;;;;;;;;;6324565;22;20009;-85
2023/01/06 13:16:18;;;;;;;;;;;;;;;;;;6294829;22;19989;-85
2023/01/06 13:18:44;;;;;;;;;;;;;;;;;;6296912;22;20445;-85
2023/01/06 13:21:10;;;;;;;;;;;;;;;;;;6299351;22;19993;-85
2023/01/06 13:23:36;;;;;;;;;;;;;;;;;;6327361;22;20018;-85
2023/01/06 13:26:02;;;;;;;;;;;;;;;;;;6296281;22;19922;-85
2023/01/06 13:28:29;;;;;;;;;;;;;;;;;;6324057;22;19921;-86
2023/01/06 13:30:55;;;;;;;;;;;;;;;;;;6320868;22;19918;-86
2023/01/06 13:33:21;;;;;;;;;;;;;;;;;;6301330;22;20280;-84
2023/01/06 13:35:46;;;;;;;;;;;;;;;;;;6326654;22;19923;-85
2023/01/06 13:38:13;;;;;;;;;;;;;;;;;;6299895;22;19923;-85
2023/01/06 13:40:39;;;;;;;;;;;;;;;;;;6324201;22;20333;-86
2023/01/06 13:43:05;;;;;;;;;;;;;;;;;;6295905;22;19925;-86
2023/01/06 13:45:31;;;;;;;;;;;;;;;;;;6322292;22;19938;-85
2023/01/06 13:47:57;;;;;;;;;;;;;;;;;;6295510;22;20316;-85
2023/01/06 13:50:23;;;;;;;;;;;;;;;;;;6300820;22;20787;-86
2023/01/06 13:52:49;;;;;;;;;;;;;;;;;;6354296;22;19929;-86
2023/01/06 13:55:15;;;;;;;;;;;;;;;;;;6297768;22;19918;-85
2023/01/06 13:57:41;;;;;;;;;;;;;;;;;;6297377;22;19967;-85
2023/01/06 14:00:07;;;;;;;;;;;;;;;;;;6300483;22;20329;-85
2023/01/06 14:02:33;;;;;;;;;;;;;;;;;;6326472;22;20331;-85
2023/01/06 14:04:59;;;;;;;;;;;;;;;;;;6300412;22;20031;-86
2023/01/06 14:07:25;;;;;;;;;;;;;;;;;;6301042;22;20327;-85
2023/01/06 14:09:54;;;;;;;;;;;;;;;;;;6327658;22;20289;-84
2023/01/06 14:12:20;;;;;;;;;;;;;;;;;;6327325;22;20048;-85
2023/01/06 14:14:46;;;;;;;;;;;;;;;;;;6329116;22;20351;-84
2023/01/06 14:17:12;;;;;;;;;;;;;;;;;;6323865;22;19925;-85
2023/01/06 14:19:38;;;;;;;;;;;;;;;;;;6302247;22;19914;-85
2023/01/06 14:22:04;;;;;;;;;;;;;;;;;;6318846;22;19922;-86
2023/01/06 14:24:30;;;;;;;;;;;;;;;;;;6321830;22;20614;-85
2023/01/06 14:27:07;;;;;;;;;;;;;;;;;;6294270;22;19930;-85
2023/01/06 14:29:33;;;;;;;;;;;;;;;;;;6298008;22;19929;-85
2023/01/06 14:31:59;;;;;;;;;;;;;;;;;;6292637;22;19930;-86
2023/01/06 14:34:25;;;;;;;;;;;;;;;;;;6301794;22;19918;-85
2023/01/06 14:36:51;;;;;;;;;;;;;;;;;;6300714;22;19953;-86
2023/01/06 14:39:17;;;;;;;;;;;;;;;;;;6296990;22;20392;-86
2023/01/06 14:41:43;;;;;;;;;;;;;;;;;;6297076;22;19926;-86
2023/01/06 14:44:12;;;;;;;;;;;;;;;;;;6292567;22;19918;-86
2023/01/06 14:46:38;;;;;;;;;;;;;;;;;;6288066;22;19998;-85
2023/01/06 14:49:13;;;;;;;;;;;;;;;;;;6298950;22;19925;-86
2023/01/06 15:51:32;;;;;;;;;;;;;;;;;;6330071;22;19922;-85
2023/01/06 16:49:58;;;;;;;;;;;;;;;;;;6340192;22;19926;-86
2023/01/06 20:07:06;;;;;;;;;;;;;;;;;;6228954;23;19945;-84
2023/01/06 21:06:24;;;;;;;;;;;;;;;;;;6291369;22;20246;-87
2023/01/06 21:08:50;;;;;;;;;;;;;;;;;;6235879;22;20416;-87
2023/01/06 21:11:16;;;;;;;;;;;;;;;;;;6234731;22;19930;-87
2023/01/06 21:13:42;;;;;;;;;;;;;;;;;;6268878;22;19923;-87
2023/01/06 21:16:11;;;;;;;;;;;;;;;;;;6236377;22;20217;-87
2023/01/06 21:18:40;;;;;;;;;;;;;;;;;;6243820;22;20301;-87
2023/01/06 21:21:08;;;;;;;;;;;;;;;;;;6237568;22;19922;-87
2023/01/06 21:23:46;;;;;;;;;;;;;;;;;;6262529;22;19954;-87
2023/01/06 21:26:12;;;;;;;;;;;;;;;;;;6236510;22;20193;-87
2023/01/06 21:28:40;;;;;;;;;;;;;;;;;;6237129;22;19930;-86
